Wetterdaten: Januar 2010
Datum Temp Feuchte Luftdruck Regen Wind Richtung Sonnenschein UV Solar Windben
01.01.2010 -3,2 C 95 % 1000,4 hPa 0,0 l/m 0,0 km/h N 0,00 h 0,0 UV-I 12 W/m 0,0 km/h
02.01.2010 -3,3 C 94 % 1015,9 hPa 0,0 l/m 0,0 km/h N 0,00 h 0,0 UV-I 30 W/m 0,0 km/h
03.01.2010 -4,3 C 94 % 1019,5 hPa 0,0 l/m 0,0 km/h S 0,00 h 0,0 UV-I 12 W/m 0,0 km/h
04.01.2010 -6,1 C 92 % 1015,4 hPa 0,0 l/m 0,0 km/h N 0,00 h 0,0 UV-I 27 W/m 0,0 km/h
05.01.2010 -7,4 C 92 % 1006,5 hPa 0,0 l/m 0,0 km/h N 0,00 h 0,0 UV-I 22 W/m 0,0 km/h
06.01.2010 -4,5 C 92 % 1004,7 hPa 0,0 l/m 0,0 km/h N 0,00 h 0,0 UV-I 17 W/m 0,0 km/h
07.01.2010 -4,1 C 93 % 1012,1 hPa 0,0 l/m 0,0 km/h N 0,00 h 0,0 UV-I 31 W/m 0,0 km/h
08.01.2010 -5,8 C 93 % 1019,6 hPa 0,0 l/m 5,8 km/h S-SO 0,00 h 0,0 UV-I 24 W/m 15,3 km/h
09.01.2010 -3,8 C 91 % 1014,5 hPa 0,0 l/m 11,3 km/h S-SO 0,00 h 0,0 UV-I 14 W/m 21,7 km/h
10.01.2010 -3,8 C 93 % 1015,9 hPa 0,0 l/m 1,3 km/h S-SO 0,00 h 0,0 UV-I 21 W/m 5,6 km/h
11.01.2010 -4,3 C 92 % 1017,7 hPa 0,0 l/m 1,3 km/h S-SO 0,00 h 0,0 UV-I 17 W/m 4,0 km/h
12.01.2010 -5,8 C 91 % 1015,3 hPa 0,0 l/m 2,5 km/h S-SO 0,00 h 0,0 UV-I 28 W/m 12,1 km/h
13.01.2010 -5,7 C 91 % 1009,0 hPa 0,0 l/m 9,9 km/h S-SO 0,67 h 0,5 UV-I 63 W/m 23,8 km/h
14.01.2010 -1,7 C 94 % 1012,0 hPa 0,0 l/m 4,5 km/h S-SO 0,92 h 0,5 UV-I 87 W/m 8,9 km/h
15.01.2010 -1,2 C 94 % 1024,1 hPa 0,0 l/m 4,7 km/h S-SO 0,00 h 0,0 UV-I 48 W/m 8,8 km/h
16.01.2010 -3,0 C 93 % 1017,0 hPa 0,0 l/m 24,0 km/h S-SO 0,00 h 0,5 UV-I 54 W/m 35,4 km/h
17.01.2010 1,5 C 99 % 1014,9 hPa 19,4 l/m 10,8 km/h S-SO 0,00 h 0,0 UV-I 36 W/m 23,0 km/h
18.01.2010 2,2 C 99 % 1023,8 hPa 11,8 l/m 5,1 km/h W 0,00 h 0,5 UV-I 30 W/m 13,3 km/h
19.01.2010 1,7 C 99 % 1021,3 hPa 8,4 l/m 1,0 km/h W-NW 0,00 h 0,0 UV-I 31 W/m 3,2 km/h
20.01.2010 0,8 C 99 % 1017,0 hPa 0,0 l/m 3,1 km/h SO 0,25 h 0,5 UV-I 49 W/m 7,3 km/h
21.01.2010 -2,2 C 94 % 1023,9 hPa 0,0 l/m 4,1 km/h O-SO 0,00 h 0,5 UV-I 54 W/m 8,9 km/h
22.01.2010 -4,6 C 96 % 1027,2 hPa 0,0 l/m 10,7 km/h S-SO 0,00 h 0,6 UV-I 61 W/m 18,9 km/h
23.01.2010 -5,1 C 95 % 1025,2 hPa 0,0 l/m 10,0 km/h S-SO 0,00 h 0,6 UV-I 67 W/m 20,1 km/h
24.01.2010 -3,8 C 93 % 1025,0 hPa 0,0 l/m 5,4 km/h SO 0,00 h 0,5 UV-I 59 W/m 10,9 km/h
25.01.2010 -6,4 C 91 % 1030,9 hPa 0,0 l/m 1,2 km/h SO 0,17 h 0,0 UV-I 62 W/m 4,8 km/h
26.01.2010 -10,9 C 87 % 1040,3 hPa 0,2 l/m 1,0 km/h N-NO 4,75 h 0,0 UV-I 149 W/m 3,6 km/h
27.01.2010 -5,3 C 87 % 1020,3 hPa 0,0 l/m 11,8 km/h SW 0,25 h 0,0 UV-I 86 W/m 22,5 km/h
28.01.2010 -0,3 C 96 % 1001,2 hPa 0,0 l/m 11,5 km/h NW 0,00 h 0,5 UV-I 42 W/m 32,6 km/h
29.01.2010 -0,6 C 98 % 983,8 hPa 0,0 l/m 6,8 km/h S 0,00 h 0,0 UV-I 20 W/m 14,1 km/h
30.01.2010 -4,7 C 93 % 994,3 hPa 0,0 l/m 3,8 km/h N-NW 0,00 h 0,0 UV-I 17 W/m 7,3 km/h
31.01.2010 -1,4 C 92 % 1003,0 hPa 0,0 l/m 7,7 km/h S-SW 0,00 h 0,0 UV-I 18 W/m 21,3 km/h
Min-Datum 27.01.10 27.01.10 29.01.10 4 Tage 01.01.10 - - - - 01.01.10
Min-Zeit 02:40 16:50 17:30 - 00:00 - - - - 00:00
Minimum -14,8 C 51 % 978,8 hPa - 0,0 km/h - - - - 0,0 km/h
Max-Datum 18.01.10 05.01.10 26.01.10 17.01.10 16.01.10 - 26.01.10 23.01.10 26.01.10 16.01.10
Max-Zeit 15:00 18:10 21:00 14:15 21:35 - 15:40 11:45 12:40 18:40
Maximum 2,7 C 100 % 1042,0 hPa 19,4 l/m 31,9 km/h
S-SO
- 4,67 h 0,7 UV-I 353 W/m 51,5 km/h
S-SO
Durchschnitt -3,5 C 94 % 1015,2 hPa #39,8 l/m 5,1 km/h S-SO #7:00 h 0,5 UV-I 42 W/m 11,2 km/h

Durchschnitt Minimum Temp.-5,6 C
Durchschnitt Maximum Temp.-1,9 C